sensor_id;sensor_type;location;lat;lon;timestamp;pressure;altitude;pressure_sealevel;temperature;humidity
19748;BME280;10032;51.386;12.516;2023-04-22T00:00:17;99939.91;;;11.22;100.00
19748;BME280;10032;51.386;12.516;2023-04-22T00:02:43;99935.53;;;11.16;100.00
19748;BME280;10032;51.386;12.516;2023-04-22T00:05:09;99934.38;;;11.07;100.00
19748;BME280;10032;51.386;12.516;2023-04-22T00:07:40;99937.31;;;11.06;100.00
19748;BME280;10032;51.386;12.516;2023-04-22T00:10:07;99929.44;;;11.04;100.00
19748;BME280;10032;51.386;12.516;2023-04-22T00:12:33;99928.38;;;11.05;100.00
19748;BME280;10032;51.386;12.516;2023-04-22T00:14:58;99927.84;;;11.08;100.00
19748;BME280;10032;51.386;12.516;2023-04-22T00:17:24;99923.66;;;11.22;100.00
19748;BME280;10032;51.386;12.516;2023-04-22T00:19:50;99917.19;;;11.28;100.00
19748;BME280;10032;51.386;12.516;2023-04-22T00:22:15;99922.66;;;11.33;100.00
19748;BME280;10032;51.386;12.516;2023-04-22T00:24:40;99913.47;;;11.39;100.00
19748;BME280;10032;51.386;12.516;2023-04-22T00:27:06;99915.16;;;11.50;100.00
19748;BME280;10032;51.386;12.516;2023-04-22T00:29:32;99906.22;;;11.55;100.00
19748;BME280;10032;51.386;12.516;2023-04-22T00:31:57;99904.66;;;11.59;100.00
19748;BME280;10032;51.386;12.516;2023-04-22T00:34:23;99906.59;;;11.63;100.00
19748;BME280;10032;51.386;12.516;2023-04-22T00:36:48;99906.63;;;11.68;100.00
19748;BME280;10032;51.386;12.516;2023-04-22T00:39:15;99895.53;;;11.75;100.00
19748;BME280;10032;51.386;12.516;2023-04-22T00:41:42;99898.28;;;11.80;100.00
19748;BME280;10032;51.386;12.516;2023-04-22T00:44:10;99903.47;;;11.86;100.00
19748;BME280;10032;51.386;12.516;2023-04-22T00:46:37;99894.53;;;11.91;100.00
19748;BME280;10032;51.386;12.516;2023-04-22T00:49:04;99895.38;;;11.96;100.00
19748;BME280;10032;51.386;12.516;2023-04-22T00:51:30;99899.72;;;11.97;100.00
19748;BME280;10032;51.386;12.516;2023-04-22T00:53:55;99892.13;;;11.99;100.00
19748;BME280;10032;51.386;12.516;2023-04-22T00:56:21;99901.09;;;12.00;100.00
19748;BME280;10032;51.386;12.516;2023-04-22T00:58:49;99892.13;;;11.99;100.00
19748;BME280;10032;51.386;12.516;2023-04-22T01:01:15;99894.84;;;11.99;100.00
19748;BME280;10032;51.386;12.516;2023-04-22T01:03:41;99891.31;;;11.99;100.00
19748;BME280;10032;51.386;12.516;2023-04-22T01:06:07;99896.44;;;11.95;100.00
19748;BME280;10032;51.386;12.516;2023-04-22T01:08:33;99888.84;;;11.92;100.00
19748;BME280;10032;51.386;12.516;2023-04-22T01:10:59;99889.38;;;11.89;100.00
19748;BME280;10032;51.386;12.516;2023-04-22T01:13:24;99890.19;;;11.90;100.00
19748;BME280;10032;51.386;12.516;2023-04-22T01:15:51;99889.91;;;11.86;100.00
19748;BME280;10032;51.386;12.516;2023-04-22T01:18:17;99891.22;;;11.79;100.00
19748;BME280;10032;51.386;12.516;2023-04-22T01:20:43;99885.75;;;11.74;100.00
19748;BME280;10032;51.386;12.516;2023-04-22T01:23:19;99893.63;;;11.70;100.00
19748;BME280;10032;51.386;12.516;2023-04-22T01:25:46;99888.44;;;11.69;100.00
19748;BME280;10032;51.386;12.516;2023-04-22T01:28:11;99892.50;;;11.66;100.00
19748;BME280;10032;51.386;12.516;2023-04-22T01:30:38;99892.75;;;11.65;100.00
19748;BME280;10032;51.386;12.516;2023-04-22T01:33:04;99890.59;;;11.62;100.00
19748;BME280;10032;51.386;12.516;2023-04-22T01:35:29;99886.72;;;11.58;100.00
19748;BME280;10032;51.386;12.516;2023-04-22T01:38:04;99887.78;;;11.52;100.00
19748;BME280;10032;51.386;12.516;2023-04-22T01:40:31;99885.81;;;11.42;100.00
19748;BME280;10032;51.386;12.516;2023-04-22T01:42:58;99881.66;;;11.30;100.00
19748;BME280;10032;51.386;12.516;2023-04-22T01:45:23;99883.66;;;11.08;100.00
19748;BME280;10032;51.386;12.516;2023-04-22T01:47:49;99889.72;;;10.88;100.00
19748;BME280;10032;51.386;12.516;2023-04-22T01:50:14;99889.59;;;10.73;100.00
19748;BME280;10032;51.386;12.516;2023-04-22T01:52:40;99889.97;;;10.55;100.00
19748;BME280;10032;51.386;12.516;2023-04-22T01:55:06;99876.19;;;10.35;100.00
19748;BME280;10032;51.386;12.516;2023-04-22T01:57:32;99878.00;;;10.25;100.00
19748;BME280;10032;51.386;12.516;2023-04-22T01:59:57;99879.22;;;10.12;100.00
19748;BME280;10032;51.386;12.516;2023-04-22T02:02:23;99879.38;;;10.06;100.00
19748;BME280;10032;51.386;12.516;2023-04-22T02:04:48;99879.88;;;10.03;100.00
19748;BME280;10032;51.386;12.516;2023-04-22T02:07:14;99878.94;;;9.92;100.00
19748;BME280;10032;51.386;12.516;2023-04-22T02:09:39;99871.25;;;9.84;100.00
19748;BME280;10032;51.386;12.516;2023-04-22T02:12:04;99870.59;;;9.77;100.00
19748;BME280;10032;51.386;12.516;2023-04-22T02:14:30;99874.38;;;9.76;100.00
19748;BME280;10032;51.386;12.516;2023-04-22T02:16:55;99866.03;;;9.78;100.00
19748;BME280;10032;51.386;12.516;2023-04-22T02:19:21;99872.38;;;9.88;100.00
19748;BME280;10032;51.386;12.516;2023-04-22T02:21:46;99878.44;;;9.95;100.00
19748;BME280;10032;51.386;12.516;2023-04-22T02:24:12;99870.38;;;10.00;100.00
19748;BME280;10032;51.386;12.516;2023-04-22T02:26:37;99876.44;;;10.07;100.00
19748;BME280;10032;51.386;12.516;2023-04-22T02:29:03;99858.09;;;10.14;100.00
19748;BME280;10032;51.386;12.516;2023-04-22T02:31:28;99868.38;;;10.12;100.00
19748;BME280;10032;51.386;12.516;2023-04-22T02:33:53;99862.97;;;10.12;100.00
19748;BME280;10032;51.386;12.516;2023-04-22T02:36:19;99868.69;;;10.16;100.00
19748;BME280;10032;51.386;12.516;2023-04-22T02:38:44;99874.94;;;10.16;100.00
19748;BME280;10032;51.386;12.516;2023-04-22T02:41:10;99870.56;;;10.15;100.00
19748;BME280;10032;51.386;12.516;2023-04-22T02:43:35;99862.66;;;10.09;100.00
19748;BME280;10032;51.386;12.516;2023-04-22T02:46:01;99866.75;;;10.11;100.00
19748;BME280;10032;51.386;12.516;2023-04-22T02:48:26;99858.69;;;10.16;100.00
19748;BME280;10032;51.386;12.516;2023-04-22T02:50:51;99860.31;;;10.17;100.00
19748;BME280;10032;51.386;12.516;2023-04-22T02:53:17;99863.75;;;10.13;100.00
19748;BME280;10032;51.386;12.516;2023-04-22T02:55:42;99861.59;;;10.10;100.00
19748;BME280;10032;51.386;12.516;2023-04-22T02:58:07;99863.47;;;10.09;100.00
19748;BME280;10032;51.386;12.516;2023-04-22T03:00:33;99865.53;;;10.02;100.00
19748;BME280;10032;51.386;12.516;2023-04-22T03:02:59;99853.69;;;9.87;100.00
19748;BME280;10032;51.386;12.516;2023-04-22T03:05:24;99851.13;;;9.75;100.00
19748;BME280;10032;51.386;12.516;2023-04-22T03:07:50;99849.16;;;9.71;100.00
19748;BME280;10032;51.386;12.516;2023-04-22T03:10:15;99846.97;;;9.68;100.00
19748;BME280;10032;51.386;12.516;2023-04-22T03:12:40;99842.63;;;9.67;100.00
19748;BME280;10032;51.386;12.516;2023-04-22T03:15:06;99841.63;;;9.73;100.00
19748;BME280;10032;51.386;12.516;2023-04-22T03:17:32;99843.06;;;9.80;100.00
19748;BME280;10032;51.386;12.516;2023-04-22T03:19:57;99839.78;;;9.78;100.00
19748;BME280;10032;51.386;12.516;2023-04-22T03:22:23;99849.22;;;9.76;100.00
19748;BME280;10032;51.386;12.516;2023-04-22T03:24:48;99843.88;;;9.81;100.00
19748;BME280;10032;51.386;12.516;2023-04-22T03:27:14;99840.16;;;9.87;100.00
19748;BME280;10032;51.386;12.516;2023-04-22T03:29:39;99854.50;;;9.87;100.00
19748;BME280;10032;51.386;12.516;2023-04-22T03:32:04;99848.09;;;9.93;100.00
19748;BME280;10032;51.386;12.516;2023-04-22T03:34:30;99842.97;;;9.97;100.00
19748;BME280;10032;51.386;12.516;2023-04-22T03:36:55;99852.47;;;9.99;100.00
19748;BME280;10032;51.386;12.516;2023-04-22T03:39:21;99853.31;;;10.00;100.00
19748;BME280;10032;51.386;12.516;2023-04-22T03:41:46;99853.00;;;9.96;100.00
19748;BME280;10032;51.386;12.516;2023-04-22T03:44:11;99852.41;;;9.94;100.00
19748;BME280;10032;51.386;12.516;2023-04-22T03:46:37;99856.38;;;9.87;100.00
19748;BME280;10032;51.386;12.516;2023-04-22T03:49:02;99847.97;;;9.83;100.00
19748;BME280;10032;51.386;12.516;2023-04-22T03:51:27;99854.97;;;9.79;100.00
19748;BME280;10032;51.386;12.516;2023-04-22T03:53:53;99847.34;;;9.76;100.00
19748;BME280;10032;51.386;12.516;2023-04-22T03:56:18;99847.28;;;9.71;100.00
19748;BME280;10032;51.386;12.516;2023-04-22T03:58:44;99841.31;;;9.69;100.00
19748;BME280;10032;51.386;12.516;2023-04-22T04:01:09;99835.84;;;9.64;100.00
19748;BME280;10032;51.386;12.516;2023-04-22T04:03:35;99838.84;;;9.68;100.00
19748;BME280;10032;51.386;12.516;2023-04-22T04:06:01;99848.84;;;9.67;100.00
19748;BME280;10032;51.386;12.516;2023-04-22T04:08:26;99850.16;;;9.65;100.00
19748;BME280;10032;51.386;12.516;2023-04-22T04:10:52;99846.00;;;9.57;100.00
19748;BME280;10032;51.386;12.516;2023-04-22T04:13:17;99845.19;;;9.57;100.00
19748;BME280;10032;51.386;12.516;2023-04-22T04:15:42;99841.66;;;9.56;100.00
19748;BME280;10032;51.386;12.516;2023-04-22T04:18:08;99835.63;;;9.49;100.00
19748;BME280;10032;51.386;12.516;2023-04-22T04:20:34;99836.69;;;9.48;100.00
19748;BME280;10032;51.386;12.516;2023-04-22T04:22:59;99828.59;;;9.48;100.00
19748;BME280;10032;51.386;12.516;2023-04-22T04:25:24;99828.91;;;9.52;100.00
19748;BME280;10032;51.386;12.516;2023-04-22T04:27:50;99830.53;;;9.53;100.00
19748;BME280;10032;51.386;12.516;2023-04-22T04:30:16;99840.16;;;9.65;100.00
19748;BME280;10032;51.386;12.516;2023-04-22T04:32:42;99843.19;;;9.69;100.00
19748;BME280;10032;51.386;12.516;2023-04-22T04:35:10;99844.75;;;9.65;100.00
19748;BME280;10032;51.386;12.516;2023-04-22T04:37:38;99841.72;;;9.61;100.00
19748;BME280;10032;51.386;12.516;2023-04-22T04:40:05;99837.72;;;9.64;100.00
19748;BME280;10032;51.386;12.516;2023-04-22T04:42:32;99840.72;;;9.67;100.00
19748;BME280;10032;51.386;12.516;2023-04-22T04:44:57;99846.72;;;9.69;100.00
19748;BME280;10032;51.386;12.516;2023-04-22T04:47:23;99847.81;;;9.73;100.00
19748;BME280;10032;51.386;12.516;2023-04-22T04:49:49;99856.53;;;9.75;100.00
19748;BME280;10032;51.386;12.516;2023-04-22T04:52:17;99849.28;;;9.81;100.00
19748;BME280;10032;51.386;12.516;2023-04-22T04:54:43;99852.34;;;9.89;100.00
19748;BME280;10032;51.386;12.516;2023-04-22T04:57:08;99852.47;;;9.99;100.00
19748;BME280;10032;51.386;12.516;2023-04-22T04:59:34;99848.84;;;10.10;100.00
19748;BME280;10032;51.386;12.516;2023-04-22T05:02:00;99853.81;;;10.71;100.00
19748;BME280;10032;51.386;12.516;2023-04-22T05:04:25;99851.28;;;11.69;100.00
19748;BME280;10032;51.386;12.516;2023-04-22T05:06:50;99848.06;;;12.89;100.00
19748;BME280;10032;51.386;12.516;2023-04-22T05:09:16;99856.59;;;13.91;100.00
19748;BME280;10032;51.386;12.516;2023-04-22T05:11:41;99852.94;;;14.69;100.00
19748;BME280;10032;51.386;12.516;2023-04-22T05:14:07;99851.69;;;15.23;100.00
19748;BME280;10032;51.386;12.516;2023-04-22T05:16:32;99855.41;;;15.61;100.00
19748;BME280;10032;51.386;12.516;2023-04-22T05:18:58;99852.56;;;15.94;100.00
19748;BME280;10032;51.386;12.516;2023-04-22T05:21:23;99860.38;;;16.24;100.00
19748;BME280;10032;51.386;12.516;2023-04-22T05:23:49;99849.38;;;16.11;100.00
19748;BME280;10032;51.386;12.516;2023-04-22T05:26:14;99859.38;;;15.73;100.00
19748;BME280;10032;51.386;12.516;2023-04-22T05:28:40;99856.81;;;15.25;100.00
19748;BME280;10032;51.386;12.516;2023-04-22T05:31:05;99864.91;;;15.06;100.00
19748;BME280;10032;51.386;12.516;2023-04-22T05:33:31;99850.25;;;14.97;100.00
19748;BME280;10032;51.386;12.516;2023-04-22T05:35:56;99858.50;;;14.92;100.00
19748;BME280;10032;51.386;12.516;2023-04-22T05:38:22;99858.94;;;15.04;100.00
19748;BME280;10032;51.386;12.516;2023-04-22T05:40:47;99858.88;;;15.09;100.00
19748;BME280;10032;51.386;12.516;2023-04-22T05:43:13;99868.50;;;15.35;100.00
19748;BME280;10032;51.386;12.516;2023-04-22T05:45:38;99868.81;;;15.57;100.00
19748;BME280;10032;51.386;12.516;2023-04-22T05:48:04;99870.50;;;15.53;100.00
19748;BME280;10032;51.386;12.516;2023-04-22T05:50:29;99864.16;;;15.63;100.00
19748;BME280;10032;51.386;12.516;2023-04-22T05:52:54;99866.22;;;15.71;99.85
19748;BME280;10032;51.386;12.516;2023-04-22T05:55:20;99859.88;;;15.75;98.06
19748;BME280;10032;51.386;12.516;2023-04-22T05:57:45;99854.91;;;15.82;97.54
19748;BME280;10032;51.386;12.516;2023-04-22T06:00:11;99857.16;;;15.99;97.01
19748;BME280;10032;51.386;12.516;2023-04-22T06:02:37;99857.53;;;15.92;96.27
19748;BME280;10032;51.386;12.516;2023-04-22T06:05:02;99862.88;;;16.02;95.05
19748;BME280;10032;51.386;12.516;2023-04-22T06:07:28;99855.94;;;16.10;95.96
19748;BME280;10032;51.386;12.516;2023-04-22T06:09:53;99859.22;;;16.30;95.42
19748;BME280;10032;51.386;12.516;2023-04-22T06:12:18;99856.88;;;16.42;94.61
19748;BME280;10032;51.386;12.516;2023-04-22T06:14:44;99854.16;;;16.42;93.67
19748;BME280;10032;51.386;12.516;2023-04-22T06:17:09;99856.91;;;16.37;93.77
19748;BME280;10032;51.386;12.516;2023-04-22T06:19:36;99861.28;;;16.38;93.06
19748;BME280;10032;51.386;12.516;2023-04-22T06:22:01;99854.69;;;16.44;92.67
19748;BME280;10032;51.386;12.516;2023-04-22T06:24:26;99867.69;;;16.52;91.12
19748;BME280;10032;51.386;12.516;2023-04-22T06:26:52;99862.00;;;16.49;91.00
19748;BME280;10032;51.386;12.516;2023-04-22T06:29:17;99859.31;;;16.44;91.59
19748;BME280;10032;51.386;12.516;2023-04-22T06:31:43;99858.38;;;16.53;90.35
19748;BME280;10032;51.386;12.516;2023-04-22T06:34:08;99860.59;;;16.51;90.49
19748;BME280;10032;51.386;12.516;2023-04-22T06:36:33;99859.34;;;16.62;89.47
19748;BME280;10032;51.386;12.516;2023-04-22T06:39:02;99856.13;;;16.92;90.37
19748;BME280;10032;51.386;12.516;2023-04-22T06:41:29;99861.47;;;17.02;90.14
19748;BME280;10032;51.386;12.516;2023-04-22T06:43:55;99860.34;;;17.35;90.74
19748;BME280;10032;51.386;12.516;2023-04-22T06:46:20;99855.97;;;17.66;90.22
19748;BME280;10032;51.386;12.516;2023-04-22T06:48:45;99853.50;;;17.51;87.00
19748;BME280;10032;51.386;12.516;2023-04-22T06:51:11;99847.19;;;17.51;86.56
19748;BME280;10032;51.386;12.516;2023-04-22T06:53:36;99853.81;;;17.63;86.87
19748;BME280;10032;51.386;12.516;2023-04-22T06:56:03;99853.69;;;17.55;85.44
19748;BME280;10032;51.386;12.516;2023-04-22T06:58:28;99852.09;;;17.81;85.81
19748;BME280;10032;51.386;12.516;2023-04-22T07:00:53;99853.31;;;18.02;85.26
19748;BME280;10032;51.386;12.516;2023-04-22T07:03:19;99859.38;;;18.39;85.80
19748;BME280;10032;51.386;12.516;2023-04-22T07:05:44;99858.38;;;18.49;84.26
19748;BME280;10032;51.386;12.516;2023-04-22T07:08:10;99855.06;;;18.60;82.88
19748;BME280;10032;51.386;12.516;2023-04-22T07:10:36;99858.53;;;18.66;82.24
19748;BME280;10032;51.386;12.516;2023-04-22T07:13:01;99846.50;;;18.75;81.10
19748;BME280;10032;51.386;12.516;2023-04-22T07:15:26;99845.00;;;18.91;81.34
19748;BME280;10032;51.386;12.516;2023-04-22T07:17:52;99841.53;;;18.99;80.74
19748;BME280;10032;51.386;12.516;2023-04-22T07:20:17;99847.25;;;19.11;80.93
19748;BME280;10032;51.386;12.516;2023-04-22T07:22:43;99847.38;;;19.06;79.24
19748;BME280;10032;51.386;12.516;2023-04-22T07:25:09;99836.03;;;18.77;76.97
19748;BME280;10032;51.386;12.516;2023-04-22T07:27:34;99832.59;;;18.94;76.81
19748;BME280;10032;51.386;12.516;2023-04-22T07:30:03;99840.44;;;19.09;76.27
19748;BME280;10032;51.386;12.516;2023-04-22T07:32:28;99838.66;;;19.04;76.51
19748;BME280;10032;51.386;12.516;2023-04-22T07:34:55;99839.84;;;19.12;76.36
19748;BME280;10032;51.386;12.516;2023-04-22T07:37:21;99844.56;;;19.20;76.96
19748;BME280;10032;51.386;12.516;2023-04-22T07:39:46;99837.44;;;19.41;76.91
19748;BME280;10032;51.386;12.516;2023-04-22T07:42:12;99838.06;;;19.60;75.72
19748;BME280;10032;51.386;12.516;2023-04-22T07:44:37;99835.78;;;19.62;75.16
19748;BME280;10032;51.386;12.516;2023-04-22T07:47:03;99843.59;;;19.68;74.53
19748;BME280;10032;51.386;12.516;2023-04-22T07:49:28;99836.72;;;19.88;75.37
19748;BME280;10032;51.386;12.516;2023-04-22T07:51:53;99831.25;;;20.05;74.89
19748;BME280;10032;51.386;12.516;2023-04-22T07:54:19;99830.81;;;20.11;71.98
19748;BME280;10032;51.386;12.516;2023-04-22T07:56:44;99828.84;;;20.03;71.36
19748;BME280;10032;51.386;12.516;2023-04-22T07:59:10;99828.09;;;20.28;71.89
19748;BME280;10032;51.386;12.516;2023-04-22T08:01:35;99821.81;;;20.45;72.13
19748;BME280;10032;51.386;12.516;2023-04-22T08:04:00;99827.81;;;20.55;69.37
19748;BME280;10032;51.386;12.516;2023-04-22T08:06:26;99829.94;;;20.58;69.88
19748;BME280;10032;51.386;12.516;2023-04-22T08:08:52;99825.72;;;20.69;69.33
19748;BME280;10032;51.386;12.516;2023-04-22T08:11:17;99823.13;;;20.81;68.58
19748;BME280;10032;51.386;12.516;2023-04-22T08:13:43;99819.59;;;20.89;67.62
19748;BME280;10032;51.386;12.516;2023-04-22T08:16:08;99822.50;;;20.93;67.24
19748;BME280;10032;51.386;12.516;2023-04-22T08:18:34;99818.94;;;20.92;66.21
19748;BME280;10032;51.386;12.516;2023-04-22T08:21:01;99818.59;;;21.02;65.48
19748;BME280;10032;51.386;12.516;2023-04-22T08:23:26;99827.19;;;21.18;65.56
19748;BME280;10032;51.386;12.516;2023-04-22T08:25:52;99822.97;;;21.20;63.27
19748;BME280;10032;51.386;12.516;2023-04-22T08:28:17;99813.69;;;21.33;63.39
19748;BME280;10032;51.386;12.516;2023-04-22T08:30:43;99809.13;;;21.37;62.12
19748;BME280;10032;51.386;12.516;2023-04-22T08:33:10;99814.31;;;21.47;62.25
19748;BME280;10032;51.386;12.516;2023-04-22T08:35:36;99805.53;;;21.54;61.63
19748;BME280;10032;51.386;12.516;2023-04-22T08:38:01;99812.97;;;21.53;60.59
19748;BME280;10032;51.386;12.516;2023-04-22T08:40:27;99807.00;;;21.51;59.57
19748;BME280;10032;51.386;12.516;2023-04-22T08:42:53;99809.03;;;21.71;60.58
19748;BME280;10032;51.386;12.516;2023-04-22T08:45:20;99809.44;;;21.90;60.92
19748;BME280;10032;51.386;12.516;2023-04-22T08:47:46;99800.03;;;21.91;56.50
19748;BME280;10032;51.386;12.516;2023-04-22T08:50:12;99802.78;;;21.91;58.20
19748;BME280;10032;51.386;12.516;2023-04-22T08:52:38;99802.78;;;21.91;57.16
19748;BME280;10032;51.386;12.516;2023-04-22T08:55:04;99802.78;;;21.91;57.13
19748;BME280;10032;51.386;12.516;2023-04-22T08:57:30;99802.91;;;21.95;56.95
19748;BME280;10032;51.386;12.516;2023-04-22T08:59:56;99799.06;;;22.16;57.75
19748;BME280;10032;51.386;12.516;2023-04-22T09:02:23;99792.84;;;22.28;57.12
19748;BME280;10032;51.386;12.516;2023-04-22T09:04:50;99791.34;;;22.30;55.90
19748;BME280;10032;51.386;12.516;2023-04-22T09:07:26;99793.03;;;22.23;54.68
19748;BME280;10032;51.386;12.516;2023-04-22T09:09:53;99785.25;;;22.45;55.85
19748;BME280;10032;51.386;12.516;2023-04-22T09:12:19;99795.44;;;22.24;53.99
19748;BME280;10032;51.386;12.516;2023-04-22T09:14:44;99783.75;;;22.48;53.91
19748;BME280;10032;51.386;12.516;2023-04-22T09:17:10;99789.59;;;22.55;53.11
19748;BME280;10032;51.386;12.516;2023-04-22T09:19:39;99785.50;;;22.73;52.56
19748;BME280;10032;51.386;12.516;2023-04-22T09:22:04;99783.81;;;22.80;52.98
19748;BME280;10032;51.386;12.516;2023-04-22T09:24:29;99787.56;;;22.96;52.00
19748;BME280;10032;51.386;12.516;2023-04-22T09:26:55;99782.25;;;22.91;50.71
19748;BME280;10032;51.386;12.516;2023-04-22T09:29:28;99785.53;;;23.05;51.03
19748;BME280;10032;51.386;12.516;2023-04-22T09:31:54;99782.13;;;22.88;49.78
19748;BME280;10032;51.386;12.516;2023-04-22T09:34:20;99782.75;;;22.93;49.99
19748;BME280;10032;51.386;12.516;2023-04-22T09:36:49;99772.94;;;23.28;48.93
19748;BME280;10032;51.386;12.516;2023-04-22T09:39:15;99772.50;;;23.26;50.26
19748;BME280;10032;51.386;12.516;2023-04-22T09:41:41;99771.13;;;23.44;49.78
19748;BME280;10032;51.386;12.516;2023-04-22T09:44:15;99765.03;;;23.51;49.42
19748;BME280;10032;51.386;12.516;2023-04-22T09:46:43;99772.91;;;23.49;48.13
19748;BME280;10032;51.386;12.516;2023-04-22T09:49:09;99760.22;;;23.84;49.07
19748;BME280;10032;51.386;12.516;2023-04-22T09:51:39;99755.03;;;24.06;50.18
19748;BME280;10032;51.386;12.516;2023-04-22T09:54:06;99761.94;;;24.24;48.16
19748;BME280;10032;51.386;12.516;2023-04-22T09:56:44;99761.44;;;24.34;48.17
19748;BME280;10032;51.386;12.516;2023-04-22T09:59:10;99759.22;;;24.52;48.25
19748;BME280;10032;51.386;12.516;2023-04-22T10:01:37;99765.91;;;24.63;48.26
19748;BME280;10032;51.386;12.516;2023-04-22T10:04:05;99760.19;;;24.83;47.66
19748;BME280;10032;51.386;12.516;2023-04-22T10:06:32;99759.06;;;25.00;47.35
19748;BME280;10032;51.386;12.516;2023-04-22T10:08:58;99756.63;;;24.98;47.51
19748;BME280;10032;51.386;12.516;2023-04-22T10:11:24;99756.00;;;25.32;47.87
19748;BME280;10032;51.386;12.516;2023-04-22T10:13:49;99759.50;;;25.60;47.27
19748;BME280;10032;51.386;12.516;2023-04-22T10:16:20;99752.97;;;25.68;46.77
19748;BME280;10032;51.386;12.516;2023-04-22T10:18:47;99754.47;;;25.81;45.90
19748;BME280;10032;51.386;12.516;2023-04-22T10:21:14;99747.44;;;25.68;45.32
19748;BME280;10032;51.386;12.516;2023-04-22T10:23:45;99746.69;;;25.71;45.05
19748;BME280;10032;51.386;12.516;2023-04-22T10:26:12;99737.13;;;25.84;45.34
19748;BME280;10032;51.386;12.516;2023-04-22T10:28:42;99740.69;;;25.85;44.91
19748;BME280;10032;51.386;12.516;2023-04-22T10:31:20;99739.00;;;25.80;44.53
19748;BME280;10032;51.386;12.516;2023-04-22T10:33:46;99733.53;;;25.84;45.10
19748;BME280;10032;51.386;12.516;2023-04-22T10:41:13;99740.81;;;25.57;43.70
19748;BME280;10032;51.386;12.516;2023-04-22T10:49:24;99730.22;;;25.78;43.04
19748;BME280;10032;51.386;12.516;2023-04-22T10:51:57;99731.13;;;25.51;44.31
19748;BME280;10032;51.386;12.516;2023-04-22T10:57:10;99721.81;;;25.44;43.97
19748;BME280;10032;51.386;12.516;2023-04-22T11:00:15;99716.34;;;25.78;43.99
19748;BME280;10032;51.386;12.516;2023-04-22T11:02:43;99707.69;;;26.14;44.21
19748;BME280;10032;51.386;12.516;2023-04-22T11:05:23;99704.50;;;26.31;45.27
19748;BME280;10032;51.386;12.516;2023-04-22T11:07:53;99692.63;;;26.34;44.28
19748;BME280;10032;51.386;12.516;2023-04-22T11:10:39;99700.66;;;26.20;44.41
19748;BME280;10032;51.386;12.516;2023-04-22T11:13:10;99702.13;;;26.14;43.64
19748;BME280;10032;51.386;12.516;2023-04-22T11:15:37;99689.19;;;25.87;44.03
19748;BME280;10032;51.386;12.516;2023-04-22T11:18:08;99690.53;;;25.78;44.04
19748;BME280;10032;51.386;12.516;2023-04-22T11:20:34;99684.19;;;26.12;45.00
19748;BME280;10032;51.386;12.516;2023-04-22T11:23:01;99691.22;;;26.06;43.91
19748;BME280;10032;51.386;12.516;2023-04-22T11:25:26;99689.88;;;26.15;44.24
19748;BME280;10032;51.386;12.516;2023-04-22T11:27:52;99681.94;;;26.36;43.96
19748;BME280;10032;51.386;12.516;2023-04-22T11:30:24;99689.38;;;26.29;43.71
19748;BME280;10032;51.386;12.516;2023-04-22T11:32:51;99683.59;;;26.37;43.39
19748;BME280;10032;51.386;12.516;2023-04-22T11:35:24;99676.31;;;26.14;41.35
19748;BME280;10032;51.386;12.516;2023-04-22T11:38:03;99676.44;;;26.55;42.34
19748;BME280;10032;51.386;12.516;2023-04-22T11:40:31;99675.38;;;26.82;42.22
19748;BME280;10032;51.386;12.516;2023-04-22T11:43:00;99670.19;;;27.03;42.03
19748;BME280;10032;51.386;12.516;2023-04-22T11:45:27;99662.19;;;27.21;42.11
19748;BME280;10032;51.386;12.516;2023-04-22T11:47:53;99662.81;;;27.33;41.41
19748;BME280;10032;51.386;12.516;2023-04-22T11:50:30;99662.81;;;27.33;40.80
19748;BME280;10032;51.386;12.516;2023-04-22T11:53:15;99655.94;;;27.05;38.63
19748;BME280;10032;51.386;12.516;2023-04-22T11:55:42;99665.03;;;27.24;38.27
19748;BME280;10032;51.386;12.516;2023-04-22T11:58:09;99657.72;;;27.16;38.37
19748;BME280;10032;51.386;12.516;2023-04-22T12:03:06;99656.56;;;27.40;38.31
19748;BME280;10032;51.386;12.516;2023-04-22T12:05:42;99655.59;;;27.55;37.42
19748;BME280;10032;51.386;12.516;2023-04-22T12:10:41;99666.78;;;27.32;36.80
19748;BME280;10032;51.386;12.516;2023-04-22T12:13:07;99662.06;;;27.36;36.79
19748;BME280;10032;51.386;12.516;2023-04-22T12:15:41;99654.88;;;27.35;35.25
19748;BME280;10032;51.386;12.516;2023-04-22T12:18:07;99655.69;;;27.13;35.45
19748;BME280;10032;51.386;12.516;2023-04-22T12:20:40;99658.19;;;27.18;35.01
19748;BME280;10032;51.386;12.516;2023-04-22T12:23:16;99647.94;;;27.22;36.04
19748;BME280;10032;51.386;12.516;2023-04-22T12:25:42;99653.25;;;27.31;35.50
19748;BME280;10032;51.386;12.516;2023-04-22T12:28:08;99638.97;;;27.58;36.06
19748;BME280;10032;51.386;12.516;2023-04-22T12:30:33;99636.59;;;27.83;36.16
19748;BME280;10032;51.386;12.516;2023-04-22T12:32:59;99631.78;;;27.83;35.75
19748;BME280;10032;51.386;12.516;2023-04-22T12:35:24;99627.69;;;27.77;35.94
19748;BME280;10032;51.386;12.516;2023-04-22T12:37:51;99642.09;;;27.79;35.89
19748;BME280;10032;51.386;12.516;2023-04-22T12:40:16;99631.78;;;27.57;35.43
19748;BME280;10032;51.386;12.516;2023-04-22T12:42:42;99621.09;;;27.59;35.07
19748;BME280;10032;51.386;12.516;2023-04-22T12:45:08;99625.25;;;27.46;34.82
19748;BME280;10032;51.386;12.516;2023-04-22T12:47:33;99618.88;;;27.20;34.73
19748;BME280;10032;51.386;12.516;2023-04-22T12:49:59;99620.19;;;27.29;34.26
19748;BME280;10032;51.386;12.516;2023-04-22T12:52:25;99614.31;;;27.34;34.48
19748;BME280;10032;51.386;12.516;2023-04-22T12:54:51;99603.84;;;27.50;34.60
19748;BME280;10032;51.386;12.516;2023-04-22T12:57:16;99614.34;;;27.60;34.22
19748;BME280;10032;51.386;12.516;2023-04-22T12:59:42;99611.75;;;27.74;34.54
19748;BME280;10032;51.386;12.516;2023-04-22T13:02:09;99608.00;;;27.89;34.30